createdAt,value
2019-03-21T00:01:30.251Z,5.00
2019-03-21T00:04:07.215Z,5.00
2019-03-21T00:06:41.032Z,5.00
2019-03-21T00:09:16.269Z,4.90
2019-03-21T00:12:14.820Z,4.90
2019-03-21T00:14:53.461Z,4.90
2019-03-21T00:17:42.563Z,4.90
2019-03-21T00:20:17.561Z,5.00
2019-03-21T00:22:51.219Z,5.00
2019-03-21T00:25:24.855Z,5.00
2019-03-21T00:27:58.817Z,5.00
2019-03-21T00:30:32.335Z,5.00
2019-03-21T00:33:05.690Z,5.00
2019-03-21T00:35:39.174Z,5.00
2019-03-21T00:38:12.965Z,5.00
2019-03-21T00:40:46.975Z,5.00
2019-03-21T00:43:21.331Z,5.00
2019-03-21T00:45:55.281Z,5.00
2019-03-21T00:48:28.751Z,4.90
2019-03-21T00:51:03.457Z,4.90
2019-03-21T00:53:37.044Z,4.90
2019-03-21T00:56:10.492Z,4.90
2019-03-21T00:58:44.150Z,4.90
2019-03-21T01:01:17.692Z,4.90
2019-03-21T01:03:51.286Z,5.00
2019-03-21T01:06:25.334Z,4.90
2019-03-21T01:08:58.717Z,4.90
2019-03-21T01:11:32.285Z,4.90
2019-03-21T01:14:05.792Z,4.90
2019-03-21T01:16:39.435Z,4.80
2019-03-21T01:19:12.875Z,4.90
2019-03-21T01:21:46.735Z,4.80
2019-03-21T01:24:20.258Z,4.80
2019-03-21T01:26:53.843Z,4.80
2019-03-21T01:29:27.381Z,4.80
2019-03-21T01:32:01.023Z,4.90
2019-03-21T01:34:34.625Z,4.90
2019-03-21T01:37:08.228Z,5.00
2019-03-21T01:39:41.626Z,4.90
2019-03-21T01:42:15.079Z,4.90
2019-03-21T01:44:48.661Z,4.80
2019-03-21T01:47:22.313Z,4.90
2019-03-21T01:49:55.751Z,4.90
2019-03-21T01:52:29.177Z,4.90
2019-03-21T01:55:03.362Z,4.90
2019-03-21T01:57:36.913Z,4.80
2019-03-21T02:00:19.646Z,4.80
2019-03-21T02:02:55.217Z,4.90
2019-03-21T02:05:28.773Z,4.90
2019-03-21T02:08:02.212Z,4.90
2019-03-21T02:10:35.594Z,4.80
2019-03-21T02:13:08.990Z,4.70
2019-03-21T02:15:42.541Z,4.70
2019-03-21T02:18:16.078Z,4.60
2019-03-21T02:20:49.897Z,4.60
2019-03-21T02:23:23.679Z,4.50
2019-03-21T02:25:57.180Z,4.40
2019-03-21T02:28:30.639Z,4.40
2019-03-21T02:31:04.154Z,4.40
2019-03-21T02:33:37.788Z,4.30
2019-03-21T02:36:11.239Z,4.30
2019-03-21T02:38:44.683Z,4.30
2019-03-21T02:41:18.154Z,4.30
2019-03-21T02:43:51.684Z,4.20
2019-03-21T02:46:25.137Z,4.20
2019-03-21T02:48:58.653Z,4.20
2019-03-21T02:51:32.107Z,4.10
2019-03-21T02:54:05.602Z,4.10
2019-03-21T02:56:39.453Z,4.10
2019-03-21T02:59:12.895Z,4.00
2019-03-21T03:01:46.446Z,4.00
2019-03-21T03:04:20.048Z,4.00
2019-03-21T03:06:53.614Z,4.10
2019-03-21T03:09:27.205Z,4.00
2019-03-21T03:12:00.618Z,4.00
2019-03-21T03:14:34.144Z,4.00
2019-03-21T03:17:07.631Z,4.00
2019-03-21T03:19:41.038Z,4.00
2019-03-21T03:22:14.484Z,4.00
2019-03-21T03:24:47.942Z,4.00
2019-03-21T03:27:21.522Z,4.00
2019-03-21T03:29:55.008Z,4.00
2019-03-21T03:32:28.641Z,4.00
2019-03-21T03:35:02.313Z,4.10
2019-03-21T03:37:36.234Z,4.20
2019-03-21T03:40:12.462Z,4.30
2019-03-21T03:42:46.760Z,4.30
2019-03-21T03:45:36.243Z,4.30
2019-03-21T03:47:58.407Z,4.30
2019-03-21T03:50:31.865Z,4.40
2019-03-21T03:53:05.571Z,4.40
2019-03-21T03:55:39.087Z,4.30
2019-03-21T03:58:13.695Z,4.30
2019-03-21T04:00:47.589Z,4.20
2019-03-21T04:03:20.993Z,4.20
2019-03-21T04:05:54.499Z,4.20
2019-03-21T04:08:28.168Z,4.10
2019-03-21T04:11:02.814Z,4.10
2019-03-21T04:13:36.381Z,4.10
2019-03-21T04:16:09.986Z,4.20
2019-03-21T04:18:43.634Z,4.20
2019-03-21T04:21:17.080Z,4.20
2019-03-21T04:23:50.730Z,4.20
2019-03-21T04:26:26.504Z,4.20
2019-03-21T04:29:00.030Z,4.20
2019-03-21T04:31:33.506Z,4.20
2019-03-21T04:34:08.429Z,4.10
2019-03-21T04:36:41.887Z,3.90
2019-03-21T04:39:15.380Z,3.70
2019-03-21T04:41:48.931Z,3.70
2019-03-21T04:44:22.590Z,3.60
2019-03-21T04:46:56.119Z,3.50
2019-03-21T04:49:29.748Z,3.50
2019-03-21T04:52:03.318Z,3.40
2019-03-21T04:54:37.030Z,3.40
2019-03-21T04:57:10.409Z,3.30
2019-03-21T04:59:43.853Z,3.30
2019-03-21T05:02:17.342Z,3.20
2019-03-21T05:04:50.807Z,3.20
2019-03-21T05:07:24.176Z,3.10
2019-03-21T05:09:57.801Z,3.10
2019-03-21T05:12:31.175Z,3.10
2019-03-21T05:15:06.499Z,3.10
2019-03-21T05:17:40.043Z,3.10
2019-03-21T05:20:16.074Z,3.20
2019-03-21T05:22:49.503Z,3.20
2019-03-21T05:25:23.199Z,3.10
2019-03-21T05:27:56.588Z,3.10
2019-03-21T05:30:33.474Z,3.10
2019-03-21T05:33:06.924Z,3.10
2019-03-21T05:35:40.659Z,3.20
2019-03-21T05:38:14.276Z,3.20
2019-03-21T05:40:47.819Z,3.20
2019-03-21T05:43:25.446Z,3.20
2019-03-21T05:45:59.000Z,3.20
2019-03-21T05:48:32.469Z,3.30
2019-03-21T05:51:05.985Z,3.20
2019-03-21T05:53:39.354Z,3.20
2019-03-21T05:56:12.814Z,3.10
2019-03-21T05:58:46.446Z,3.10
2019-03-21T06:01:20.394Z,3.10
2019-03-21T06:03:53.872Z,3.10
2019-03-21T06:06:59.045Z,3.10
2019-03-21T06:09:32.596Z,3.20
2019-03-21T06:12:06.604Z,3.30
2019-03-21T06:14:46.440Z,3.40
2019-03-21T06:17:20.262Z,3.50
2019-03-21T06:20:28.443Z,3.60
2019-03-21T06:23:48.121Z,3.60
2019-03-21T06:26:37.221Z,3.70
2019-03-21T06:29:10.711Z,3.80
2019-03-21T06:31:44.411Z,3.90
2019-03-21T06:34:17.905Z,4.00
2019-03-21T06:36:51.788Z,4.00
2019-03-21T06:39:25.157Z,4.10
2019-03-21T06:41:58.929Z,4.30
2019-03-21T06:44:32.650Z,4.40
2019-03-21T06:47:07.800Z,4.60
2019-03-21T06:49:41.686Z,4.80
2019-03-21T06:52:15.186Z,4.90
2019-03-21T06:54:48.842Z,5.00
2019-03-21T06:57:22.463Z,5.00
2019-03-21T06:59:55.911Z,5.20
2019-03-21T07:02:29.983Z,5.30
2019-03-21T07:05:03.765Z,5.50
2019-03-21T07:07:37.301Z,5.70
2019-03-21T07:10:11.590Z,5.80
2019-03-21T07:12:45.237Z,5.90
2019-03-21T07:15:18.647Z,6.00
2019-03-21T07:17:52.322Z,6.30
2019-03-21T07:20:25.817Z,6.50
2019-03-21T07:22:59.561Z,6.70
2019-03-21T07:25:33.050Z,7.00
2019-03-21T07:28:06.671Z,7.20
2019-03-21T07:30:41.061Z,7.40
2019-03-21T07:33:14.445Z,7.60
2019-03-21T07:35:47.948Z,7.70
2019-03-21T07:38:21.437Z,7.90
2019-03-21T07:40:54.897Z,8.00
2019-03-21T07:43:28.375Z,8.00
2019-03-21T07:46:01.964Z,8.20
2019-03-21T07:48:35.405Z,8.50
2019-03-21T07:51:20.323Z,8.70
2019-03-21T07:53:53.928Z,8.90
2019-03-21T07:56:27.618Z,9.00
2019-03-21T07:59:01.141Z,9.10
2019-03-21T08:01:35.711Z,9.20
2019-03-21T08:04:09.223Z,9.50
2019-03-21T08:06:43.066Z,9.60
2019-03-21T08:09:16.512Z,9.70
2019-03-21T08:11:50.243Z,9.80
2019-03-21T08:14:23.791Z,9.80
2019-03-21T08:16:57.366Z,10.10
2019-03-21T08:19:31.127Z,10.30
2019-03-21T08:22:04.695Z,10.50
2019-03-21T08:24:38.163Z,10.70
2019-03-21T08:27:11.536Z,10.70
2019-03-21T08:29:45.083Z,10.70
2019-03-21T08:32:18.583Z,10.70
2019-03-21T08:34:52.192Z,10.60
2019-03-21T08:37:25.768Z,10.80
2019-03-21T08:39:59.329Z,10.70
2019-03-21T08:42:32.733Z,10.80
2019-03-21T08:45:06.524Z,10.80
2019-03-21T08:47:40.122Z,11.10
2019-03-21T08:50:13.993Z,11.30
2019-03-21T08:52:47.357Z,11.50
2019-03-21T08:55:21.101Z,11.80
2019-03-21T08:57:54.656Z,11.80
2019-03-21T09:00:34.129Z,12.00
2019-03-21T09:03:04.065Z,12.00
2019-03-21T09:05:37.887Z,11.90
2019-03-21T09:08:11.482Z,11.90
2019-03-21T09:10:45.090Z,12.10
2019-03-21T09:13:18.804Z,12.20
2019-03-21T09:15:52.304Z,12.50
2019-03-21T09:18:25.892Z,12.70
2019-03-21T09:21:00.335Z,13.00
2019-03-21T09:23:33.922Z,13.40
2019-03-21T09:26:07.401Z,13.60
2019-03-21T09:28:40.929Z,13.90
2019-03-21T09:31:14.430Z,14.10
2019-03-21T09:33:47.849Z,14.70
2019-03-21T09:36:21.755Z,15.40
2019-03-21T09:38:55.214Z,15.70
2019-03-21T09:41:28.957Z,15.60
2019-03-21T09:44:02.384Z,15.80
2019-03-21T09:46:36.419Z,15.80
2019-03-21T09:49:10.481Z,15.70
2019-03-21T09:51:43.938Z,15.50
2019-03-21T09:54:17.426Z,15.50
2019-03-21T09:56:50.907Z,15.40
2019-03-21T09:59:24.758Z,15.20
2019-03-21T10:01:58.245Z,15.10
2019-03-21T10:04:31.839Z,15.20
2019-03-21T10:07:05.159Z,15.50
2019-03-21T10:09:38.643Z,15.80
2019-03-21T10:12:12.383Z,16.20
2019-03-21T10:14:46.028Z,16.60
2019-03-21T10:17:19.546Z,16.40
2019-03-21T10:19:53.099Z,16.10
2019-03-21T10:22:26.641Z,16.40
2019-03-21T10:25:01.050Z,16.40
2019-03-21T10:27:34.943Z,16.20
2019-03-21T10:30:08.593Z,16.20
2019-03-21T10:32:42.051Z,16.10
2019-03-21T10:35:16.104Z,15.90
2019-03-21T10:37:49.666Z,16.20
2019-03-21T10:40:23.599Z,16.60
2019-03-21T10:42:57.518Z,17.20
2019-03-21T10:45:31.075Z,17.50
2019-03-21T10:48:05.136Z,17.70
2019-03-21T10:50:39.730Z,17.80
2019-03-21T10:53:13.350Z,18.10
2019-03-21T10:55:47.055Z,17.80
2019-03-21T10:58:20.696Z,17.40
2019-03-21T11:00:54.523Z,17.50
2019-03-21T11:03:28.228Z,17.80
2019-03-21T11:06:01.839Z,17.70
2019-03-21T11:08:35.560Z,17.70
2019-03-21T11:11:09.081Z,18.00
2019-03-21T11:13:42.544Z,18.30
2019-03-21T11:16:16.257Z,18.80
2019-03-21T11:18:49.905Z,18.60
2019-03-21T11:21:23.561Z,18.00
2019-03-21T11:23:57.069Z,18.60
2019-03-21T11:26:30.716Z,19.20
2019-03-21T11:29:04.396Z,19.70
2019-03-21T11:31:37.951Z,19.90
2019-03-21T11:34:11.477Z,20.20
2019-03-21T11:36:45.148Z,20.10
2019-03-21T11:39:18.852Z,20.10
2019-03-21T11:41:52.808Z,20.40
2019-03-21T11:44:26.279Z,20.10
2019-03-21T11:47:00.075Z,20.00
2019-03-21T11:49:33.582Z,20.20
2019-03-21T11:52:17.793Z,18.70
2019-03-21T11:54:42.558Z,17.70
2019-03-21T11:57:15.990Z,17.30
2019-03-21T11:59:52.037Z,17.60
2019-03-21T12:02:27.397Z,18.80
2019-03-21T12:05:00.720Z,19.80
2019-03-21T12:07:34.312Z,20.20
2019-03-21T12:10:08.311Z,20.50
2019-03-21T12:12:42.081Z,20.90
2019-03-21T12:15:15.509Z,21.30
2019-03-21T12:17:49.305Z,21.40
2019-03-21T12:20:30.652Z,21.50
2019-03-21T12:23:04.366Z,21.50
2019-03-21T12:25:38.351Z,21.50
2019-03-21T12:28:11.806Z,21.90
2019-03-21T12:30:45.413Z,21.90
2019-03-21T12:33:18.782Z,21.70
2019-03-21T12:35:52.240Z,20.60
2019-03-21T12:38:25.873Z,20.20
2019-03-21T12:40:59.326Z,20.30
2019-03-21T12:43:33.232Z,20.50
2019-03-21T12:46:06.692Z,20.70
2019-03-21T12:48:40.445Z,21.40
2019-03-21T12:51:13.969Z,20.60
2019-03-21T12:53:47.987Z,20.50
2019-03-21T12:56:21.787Z,21.20
2019-03-21T12:58:55.288Z,21.60
2019-03-21T13:01:28.863Z,21.80
2019-03-21T13:04:02.621Z,21.80
2019-03-21T13:06:36.077Z,22.40
2019-03-21T13:09:09.761Z,22.40
2019-03-21T13:11:43.387Z,22.80
2019-03-21T13:14:16.988Z,22.70
2019-03-21T13:16:50.548Z,22.60
2019-03-21T13:19:24.058Z,21.70
2019-03-21T13:21:57.800Z,21.40
2019-03-21T13:24:31.296Z,21.60
2019-03-21T13:27:05.046Z,21.70
2019-03-21T13:29:38.603Z,21.10
2019-03-21T13:32:12.196Z,19.90
2019-03-21T13:34:45.707Z,19.70
2019-03-21T13:37:19.310Z,20.30
2019-03-21T13:39:52.927Z,21.20
2019-03-21T13:42:26.646Z,21.70
2019-03-21T13:45:00.095Z,22.20
2019-03-21T13:47:33.821Z,22.50
2019-03-21T13:50:07.562Z,22.40
2019-03-21T13:52:41.083Z,20.80
2019-03-21T13:55:15.002Z,20.40
2019-03-21T13:57:48.521Z,20.50
2019-03-21T14:00:22.382Z,19.90
2019-03-21T14:02:55.860Z,19.80
2019-03-21T14:05:29.298Z,20.90
2019-03-21T14:08:02.827Z,22.20
2019-03-21T14:10:36.341Z,22.80
2019-03-21T14:13:09.948Z,21.70
2019-03-21T14:15:43.698Z,21.90
2019-03-21T14:18:17.287Z,21.10
2019-03-21T14:20:50.841Z,21.20
2019-03-21T14:23:24.343Z,21.40
2019-03-21T14:25:57.845Z,21.40
2019-03-21T14:28:31.468Z,21.70
2019-03-21T14:31:05.004Z,20.80
2019-03-21T14:33:38.864Z,22.00
2019-03-21T14:36:12.272Z,22.90
2019-03-21T14:38:45.952Z,23.60
2019-03-21T14:41:19.477Z,23.80
2019-03-21T14:43:53.182Z,24.00
2019-03-21T14:46:26.734Z,23.60
2019-03-21T14:49:00.393Z,23.00
2019-03-21T14:51:34.062Z,23.10
2019-03-21T14:54:07.648Z,23.90
2019-03-21T14:56:42.186Z,24.40
2019-03-21T14:59:15.773Z,23.90
2019-03-21T15:01:50.434Z,22.80
2019-03-21T15:04:24.133Z,23.70
2019-03-21T15:06:57.633Z,24.20
2019-03-21T15:09:31.171Z,23.90
2019-03-21T15:12:04.800Z,23.90
2019-03-21T15:14:38.784Z,23.90
2019-03-21T15:17:12.482Z,23.50
2019-03-21T15:19:45.978Z,23.70
2019-03-21T15:22:19.488Z,24.20
2019-03-21T15:24:53.332Z,23.70
2019-03-21T15:27:26.984Z,23.60
2019-03-21T15:30:00.619Z,24.00
2019-03-21T15:32:34.151Z,23.80
2019-03-21T15:35:09.295Z,24.00
2019-03-21T15:37:42.743Z,23.70
2019-03-21T15:40:16.839Z,24.10
2019-03-21T15:42:50.530Z,24.20
2019-03-21T15:45:24.215Z,23.80
2019-03-21T15:47:57.913Z,24.00
2019-03-21T15:50:33.010Z,24.30
2019-03-21T15:53:06.480Z,24.20
2019-03-21T15:55:40.062Z,24.50
2019-03-21T15:58:13.508Z,24.30
2019-03-21T16:00:47.253Z,24.80
2019-03-21T16:03:20.727Z,24.90
2019-03-21T16:05:54.545Z,24.90
2019-03-21T16:08:28.002Z,24.90
2019-03-21T16:11:01.633Z,24.60
2019-03-21T16:13:35.199Z,24.40
2019-03-21T16:16:08.713Z,24.20
2019-03-21T16:18:42.242Z,24.00
2019-03-21T16:21:15.868Z,24.00
2019-03-21T16:23:49.310Z,23.70
2019-03-21T16:26:22.729Z,23.40
2019-03-21T16:28:56.624Z,23.30
2019-03-21T16:31:30.167Z,23.00
2019-03-21T16:34:03.714Z,22.40
2019-03-21T16:36:37.240Z,22.10
2019-03-21T16:39:10.938Z,21.60
2019-03-21T16:41:44.599Z,20.90
2019-03-21T16:44:18.077Z,20.40
2019-03-21T16:46:51.530Z,19.80
2019-03-21T16:49:25.307Z,19.40
2019-03-21T16:51:58.815Z,18.90
2019-03-21T16:54:32.503Z,18.60
2019-03-21T16:57:06.064Z,18.30
2019-03-21T16:59:39.645Z,18.10
2019-03-21T17:02:13.143Z,18.00
2019-03-21T17:04:47.446Z,17.90
2019-03-21T17:07:21.142Z,17.80
2019-03-21T17:09:54.614Z,17.60
2019-03-21T17:12:28.369Z,17.50
2019-03-21T17:15:01.818Z,17.40
2019-03-21T17:17:35.431Z,17.40
2019-03-21T17:20:10.580Z,17.40
2019-03-21T17:22:44.109Z,17.50
2019-03-21T17:25:17.526Z,17.30
2019-03-21T17:27:51.002Z,17.20
2019-03-21T17:30:43.622Z,16.90
2019-03-21T17:33:17.454Z,16.70
2019-03-21T17:35:50.839Z,16.50
2019-03-21T17:38:24.346Z,16.20
2019-03-21T17:40:57.981Z,16.00
2019-03-21T17:43:31.509Z,15.90
2019-03-21T17:46:05.148Z,15.60
2019-03-21T17:48:38.719Z,15.40
2019-03-21T17:51:12.353Z,15.30
2019-03-21T17:53:46.059Z,15.10
2019-03-21T17:56:19.962Z,15.00
2019-03-21T17:58:53.597Z,14.90
2019-03-21T18:01:27.289Z,14.80
2019-03-21T18:04:01.049Z,14.70
2019-03-21T18:06:35.510Z,14.60
2019-03-21T18:09:09.097Z,14.50
2019-03-21T18:11:42.676Z,14.40
2019-03-21T18:14:16.451Z,14.30
2019-03-21T18:16:49.988Z,14.30
2019-03-21T18:19:24.827Z,14.10
2019-03-21T18:21:58.535Z,14.00
2019-03-21T18:24:32.069Z,13.90
2019-03-21T18:27:05.690Z,13.80
2019-03-21T18:29:39.288Z,13.80
2019-03-21T18:32:12.655Z,13.70
2019-03-21T18:34:46.242Z,13.60
2019-03-21T18:37:19.727Z,13.50
2019-03-21T18:39:53.486Z,13.40
2019-03-21T18:42:26.945Z,13.30
2019-03-21T18:45:00.533Z,13.20
2019-03-21T18:47:34.023Z,13.10
2019-03-21T18:50:09.214Z,13.00
2019-03-21T18:52:43.281Z,12.90
2019-03-21T18:55:17.007Z,12.80
2019-03-21T18:57:50.587Z,12.70
2019-03-21T19:00:24.219Z,12.70
2019-03-21T19:03:00.476Z,12.60
2019-03-21T19:05:33.310Z,12.50
2019-03-21T19:08:06.872Z,12.40
2019-03-21T19:10:40.888Z,12.30
2019-03-21T19:13:14.828Z,12.20
2019-03-21T19:15:48.507Z,12.10
2019-03-21T19:18:22.298Z,12.10
2019-03-21T19:20:55.752Z,12.00
2019-03-21T19:23:29.256Z,11.90
2019-03-21T19:26:03.040Z,11.80
2019-03-21T19:28:37.698Z,11.70
2019-03-21T19:31:19.409Z,11.70
2019-03-21T19:33:53.346Z,11.50
2019-03-21T19:36:26.975Z,11.40
2019-03-21T19:39:00.408Z,11.30
2019-03-21T19:41:33.904Z,11.30
2019-03-21T19:44:07.790Z,11.30
2019-03-21T19:46:41.285Z,11.20
2019-03-21T19:49:14.938Z,11.20
2019-03-21T19:51:48.506Z,11.10
2019-03-21T19:54:22.297Z,11.00
2019-03-21T19:56:55.903Z,11.00
2019-03-21T19:59:29.323Z,11.00
2019-03-21T20:02:03.093Z,11.00
2019-03-21T20:04:36.591Z,11.00
2019-03-21T20:07:10.167Z,10.90
2019-03-21T20:09:43.913Z,10.80
2019-03-21T20:12:17.657Z,10.70
2019-03-21T20:14:51.352Z,10.70
2019-03-21T20:17:25.131Z,10.60
2019-03-21T20:19:58.778Z,10.50
2019-03-21T20:22:32.414Z,10.40
2019-03-21T20:25:07.377Z,10.30
2019-03-21T20:27:41.540Z,10.20
2019-03-21T20:30:16.886Z,10.10
2019-03-21T20:32:50.983Z,10.00
2019-03-21T20:35:24.690Z,10.00
2019-03-21T20:37:58.152Z,10.00
2019-03-21T20:40:31.738Z,10.00
2019-03-21T20:43:05.463Z,10.00
2019-03-21T20:45:39.342Z,10.00
2019-03-21T20:48:13.691Z,10.00
2019-03-21T20:50:48.348Z,10.00
2019-03-21T20:53:21.869Z,10.00
2019-03-21T20:55:55.637Z,10.00
2019-03-21T20:58:29.078Z,9.90
2019-03-21T21:01:03.627Z,9.90
2019-03-21T21:03:38.417Z,9.90
2019-03-21T21:06:11.954Z,10.00
2019-03-21T21:08:45.604Z,10.00
2019-03-21T21:11:19.328Z,10.00
2019-03-21T21:13:52.766Z,10.00
2019-03-21T21:16:26.512Z,10.00
2019-03-21T21:19:00.092Z,9.90
2019-03-21T21:21:33.638Z,9.80
2019-03-21T21:24:07.102Z,9.60
2019-03-21T21:26:40.748Z,9.60
2019-03-21T21:29:14.293Z,9.50
2019-03-21T21:31:48.135Z,9.40
2019-03-21T21:34:21.660Z,9.30
2019-03-21T21:36:56.247Z,9.10
2019-03-21T21:39:30.854Z,9.10
2019-03-21T21:42:04.369Z,9.10
2019-03-21T21:44:38.167Z,9.00
2019-03-21T21:47:12.170Z,9.10
2019-03-21T21:49:45.676Z,9.00
2019-03-21T21:52:19.726Z,9.00
2019-03-21T21:54:53.218Z,9.00
2019-03-21T21:57:26.673Z,8.90
2019-03-21T22:00:01.290Z,8.90
2019-03-21T22:02:35.290Z,8.80
2019-03-21T22:05:08.879Z,8.80
2019-03-21T22:07:42.527Z,8.80
2019-03-21T22:10:15.925Z,8.70
2019-03-21T22:12:49.650Z,8.70
2019-03-21T22:15:23.208Z,8.70
2019-03-21T22:17:56.898Z,8.60
2019-03-21T22:20:30.586Z,8.60
2019-03-21T22:23:04.456Z,8.50
2019-03-21T22:25:38.486Z,8.50
2019-03-21T22:28:12.025Z,8.40
2019-03-21T22:30:45.548Z,8.40
2019-03-21T22:33:19.168Z,8.40
2019-03-21T22:35:52.924Z,8.40
2019-03-21T22:38:26.569Z,8.40
2019-03-21T22:41:00.287Z,8.30
2019-03-21T22:43:33.957Z,8.30
2019-03-21T22:46:07.528Z,8.20
2019-03-21T22:48:41.150Z,8.20
2019-03-21T22:51:14.713Z,8.20
2019-03-21T22:54:02.406Z,8.20
2019-03-21T22:56:41.573Z,8.20
2019-03-21T22:59:12.535Z,8.10
2019-03-21T23:01:47.552Z,8.00
2019-03-21T23:04:21.433Z,7.90
2019-03-21T23:06:54.898Z,7.80
2019-03-21T23:09:28.510Z,7.70
2019-03-21T23:12:02.001Z,7.70
2019-03-21T23:14:35.776Z,7.70
2019-03-21T23:17:09.235Z,7.70
2019-03-21T23:19:43.150Z,7.90
2019-03-21T23:22:16.696Z,8.00
2019-03-21T23:24:50.345Z,8.20
2019-03-21T23:27:23.799Z,8.30
2019-03-21T23:29:58.450Z,8.30
2019-03-21T23:32:31.811Z,8.40
2019-03-21T23:35:06.670Z,8.40
2019-03-21T23:37:40.189Z,8.40
2019-03-21T23:40:13.875Z,8.30
2019-03-21T23:42:47.271Z,8.10
2019-03-21T23:45:20.978Z,8.00
2019-03-21T23:47:54.536Z,7.90
2019-03-21T23:50:28.596Z,7.70
2019-03-21T23:53:02.241Z,7.40
2019-03-21T23:55:36.715Z,7.30
2019-03-21T23:58:11.045Z,7.20
